Portada
METAR-TAF:

METAR-TAF

Aeroports :

Hyakuri, Japó

latitud: 36-11N, longitud: 140-25E, altitud: 32 m

Observació

L'informe es va fer fa 46 minuts, a les 01:00 UTC
Vent 4 kt del Oest, variant entre Sud-Oest i Oest/Nord-Oest
Temperatura 16°C
Humitat 77%
Pressió 1005 hPa
Visibilitat 10 km o més
Núvols disperses a una alçada de 1200 ft
Cel ennuvolat a una alçada de 10000 ft

METAR: RJAH 140100Z 26004KT 230V300 9999 SCT012 BKN100 16/12 Q1005

Hora: 10:46 (01:46 UTC)

Pronòstic

L'informe es va fer fa 2 hores i 39 minuts, a les 23:07 UTC
Pronòstic vàlid del 14 a les 00 UTC al 15 a les 06 UTC
Vent 6 kt del Oest/Sud-Oest
Visibilitat 10 km o més
Escasses núvols a una alçada de 2000 ft
Evolucionant progressivament
l' 14 a les 02 UTC al 14 a les 04 UTC
Vent 12 kt del Nord
Evolucionant progressivament
l' 15 a les 00 UTC al 15 a les 03 UTC
Vent 8 kt del Sud/Sud-Oest

TAF: RJAH 132307Z 1400/1506 24006KT 9999 FEW020 BECMG 1402/1404 36012KT BECMG 1500/1503 20008KT

Observacions i pronòstics meteorològics de més de 4000 aeroports (METAR i TAF).

Les estacions disponibles són els punts grocs i vermells al mapa.

Posi el ratolí al punt desitjat per veure el nom de l'estació.

Feu clic per veure les observacions i els pronòstics meteorològics.

Per canviar el mapa: feu clic els botons verds amb una creu de color negre per apropar; al botó verd amb un guió per allunyar la imatge; o en les fletxes verdes per a mapes adjacents.


METAR-TAF: